createdAt,value
2019-03-05T00:01:55.724Z,5.22
2019-03-05T00:04:24.786Z,4.80
2019-03-05T00:06:53.560Z,5.37
2019-03-05T00:09:23.149Z,9.20
2019-03-05T00:11:52.117Z,4.83
2019-03-05T00:14:23.376Z,4.67
2019-03-05T00:16:52.143Z,4.40
2019-03-05T00:19:20.909Z,4.72
2019-03-05T00:21:49.659Z,4.70
2019-03-05T00:24:58.911Z,6.65
2019-03-05T00:27:28.920Z,5.05
2019-03-05T00:30:34.527Z,5.40
2019-03-05T00:33:37.372Z,5.28
2019-03-05T00:36:13.333Z,4.75
2019-03-05T00:38:48.896Z,4.90
2019-03-05T00:42:01.995Z,4.35
2019-03-05T00:45:08.272Z,6.67
2019-03-05T00:48:19.355Z,5.35
2019-03-05T00:50:59.361Z,6.30
2019-03-05T00:53:53.602Z,4.67
2019-03-05T00:56:34.463Z,5.50
2019-03-05T00:59:34.291Z,4.55
2019-03-05T01:02:20.806Z,3.95
2019-03-05T01:05:42.789Z,5.03
2019-03-05T01:08:11.639Z,4.15
2019-03-05T01:10:40.528Z,6.00
2019-03-05T01:13:09.376Z,6.10
2019-03-05T01:15:38.170Z,4.45
2019-03-05T01:18:07.091Z,5.17
2019-03-05T01:20:35.909Z,4.00
2019-03-05T01:23:04.864Z,3.10
2019-03-05T01:25:33.922Z,6.05
2019-03-05T01:28:02.871Z,4.92
2019-03-05T01:30:43.034Z,4.37
2019-03-05T01:33:13.811Z,4.78
2019-03-05T01:35:50.728Z,3.90
2019-03-05T01:38:19.892Z,6.22
2019-03-05T01:40:55.658Z,4.28
2019-03-05T01:43:24.532Z,3.98
2019-03-05T01:45:53.344Z,3.42
2019-03-05T01:48:22.124Z,4.90
2019-03-05T01:50:50.910Z,3.10
2019-03-05T01:53:19.800Z,2.45
2019-03-05T01:55:48.589Z,2.75
2019-03-05T01:58:17.319Z,3.95
2019-03-05T02:00:46.114Z,2.80
2019-03-05T02:03:14.952Z,4.70
2019-03-05T02:05:43.826Z,3.10
2019-03-05T02:08:12.857Z,4.53
2019-03-05T02:10:42.236Z,5.67
2019-03-05T02:13:11.280Z,4.03
2019-03-05T02:15:40.173Z,3.20
2019-03-05T02:18:09.264Z,7.47
2019-03-05T02:20:38.319Z,4.10
2019-03-05T02:23:14.050Z,3.72
2019-03-05T02:26:26.369Z,3.77
2019-03-05T02:29:08.673Z,5.17
2019-03-05T02:32:08.950Z,3.58
2019-03-05T02:34:55.743Z,2.92
2019-03-05T02:38:05.755Z,3.72
2019-03-05T02:40:39.885Z,2.87
2019-03-05T02:43:57.665Z,5.83
2019-03-05T02:46:55.014Z,3.20
2019-03-05T02:50:01.053Z,4.37
2019-03-05T02:52:39.703Z,3.75
2019-03-05T02:55:45.422Z,4.75
2019-03-05T02:58:13.074Z,3.47
2019-03-05T03:00:51.865Z,3.60
2019-03-05T03:03:28.435Z,4.15
2019-03-05T03:06:05.195Z,3.17
2019-03-05T03:08:34.042Z,4.42
2019-03-05T03:11:02.783Z,4.40
2019-03-05T03:13:31.524Z,3.70
2019-03-05T03:16:00.535Z,3.27
2019-03-05T03:18:29.339Z,2.50
2019-03-05T03:20:58.082Z,3.08
2019-03-05T03:23:27.065Z,2.70
2019-03-05T03:25:55.937Z,2.70
2019-03-05T03:28:24.742Z,3.00
2019-03-05T03:30:53.521Z,2.40
2019-03-05T03:33:22.365Z,2.55
2019-03-05T03:35:51.164Z,2.62
2019-03-05T03:38:19.899Z,2.55
2019-03-05T03:40:48.658Z,2.95
2019-03-05T03:43:17.787Z,3.37
2019-03-05T03:45:46.942Z,2.92
2019-03-05T03:48:15.810Z,4.65
2019-03-05T03:50:44.833Z,3.95
2019-03-05T03:53:13.858Z,5.65
2019-03-05T03:55:42.701Z,3.62
2019-03-05T03:58:11.583Z,3.30
2019-03-05T04:00:40.933Z,2.45
2019-03-05T04:03:09.740Z,2.75
2019-03-05T04:05:38.558Z,2.80
2019-03-05T04:08:10.369Z,3.08
2019-03-05T04:10:38.054Z,2.85
2019-03-05T04:13:06.880Z,3.33
2019-03-05T04:15:35.621Z,4.15
2019-03-05T04:18:04.556Z,2.30
2019-03-05T04:20:46.274Z,3.17
2019-03-05T04:23:15.007Z,2.67
2019-03-05T04:25:43.750Z,3.25
2019-03-05T04:28:12.511Z,2.05
2019-03-05T04:30:41.358Z,2.80
2019-03-05T04:33:11.516Z,2.20
2019-03-05T04:35:40.252Z,2.40
2019-03-05T04:38:08.994Z,2.42
2019-03-05T04:40:37.790Z,2.10
2019-03-05T04:43:06.558Z,2.52
2019-03-05T04:45:50.598Z,4.92
2019-03-05T04:48:19.442Z,2.08
2019-03-05T04:50:54.861Z,2.30
2019-03-05T04:53:23.870Z,2.80
2019-03-05T04:55:52.907Z,2.85
2019-03-05T04:58:21.712Z,2.40
2019-03-05T05:00:50.639Z,2.50
2019-03-05T05:03:19.493Z,3.33
2019-03-05T05:05:48.530Z,4.35
2019-03-05T05:08:17.396Z,2.50
2019-03-05T05:10:46.280Z,1.55
2019-03-05T05:13:15.290Z,2.65
2019-03-05T05:15:44.069Z,2.40
2019-03-05T05:18:13.092Z,2.35
2019-03-05T05:20:41.967Z,3.75
2019-03-05T05:23:11.712Z,3.27
2019-03-05T05:25:41.603Z,1.98
2019-03-05T05:28:10.468Z,2.12
2019-03-05T05:30:39.985Z,2.98
2019-03-05T05:33:09.095Z,3.77
2019-03-05T05:35:38.205Z,2.05
2019-03-05T05:38:07.091Z,2.42
2019-03-05T05:40:40.382Z,2.30
2019-03-05T05:43:11.927Z,3.05
2019-03-05T05:45:51.120Z,3.00
2019-03-05T05:48:19.930Z,3.42
2019-03-05T05:50:48.776Z,2.27
2019-03-05T05:53:17.709Z,4.40
2019-03-05T05:55:46.548Z,2.35
2019-03-05T05:58:15.430Z,3.80
2019-03-05T06:00:46.813Z,4.58
2019-03-05T06:03:15.680Z,2.10
2019-03-05T06:05:44.708Z,5.22
2019-03-05T06:08:13.815Z,2.92
2019-03-05T06:10:42.566Z,2.25
2019-03-05T06:13:11.400Z,1.55
2019-03-05T06:15:40.294Z,3.02
2019-03-05T06:18:09.420Z,6.60
2019-03-05T06:20:38.204Z,2.37
2019-03-05T06:23:06.952Z,3.55
2019-03-05T06:25:35.757Z,3.98
2019-03-05T06:28:04.704Z,3.92
2019-03-05T06:30:34.753Z,5.47
2019-03-05T06:33:03.823Z,2.77
2019-03-05T06:35:32.555Z,1.87
2019-03-05T06:38:01.365Z,6.17
2019-03-05T06:40:30.200Z,3.33
2019-03-05T06:42:59.260Z,6.00
2019-03-05T06:45:28.069Z,3.65
2019-03-05T06:47:57.233Z,3.45
2019-03-05T06:50:26.194Z,6.45
2019-03-05T06:52:55.046Z,3.08
2019-03-05T06:55:23.952Z,8.58
2019-03-05T06:57:52.787Z,3.83
2019-03-05T07:00:30.541Z,3.87
2019-03-05T07:02:59.571Z,2.37
2019-03-05T07:06:23.554Z,5.00
2019-03-05T07:09:04.904Z,4.78
2019-03-05T07:12:05.367Z,1.98
2019-03-05T07:14:45.268Z,3.80
2019-03-05T07:17:21.143Z,5.45
2019-03-05T07:20:21.700Z,3.75
2019-03-05T07:23:22.502Z,4.35
2019-03-05T07:25:51.562Z,4.53
2019-03-05T07:28:20.356Z,4.60
2019-03-05T07:30:49.126Z,1.67
2019-03-05T07:33:17.977Z,3.55
2019-03-05T07:35:46.898Z,3.20
2019-03-05T07:38:15.658Z,3.92
2019-03-05T07:40:44.446Z,2.60
2019-03-05T07:43:13.443Z,2.47
2019-03-05T07:45:42.219Z,2.90
2019-03-05T07:48:11.072Z,4.62
2019-03-05T07:50:40.159Z,3.45
2019-03-05T07:53:09.058Z,2.75
2019-03-05T07:55:38.195Z,2.45
2019-03-05T07:58:07.010Z,3.00
2019-03-05T08:00:35.974Z,2.15
2019-03-05T08:03:04.888Z,5.87
2019-03-05T08:05:33.748Z,2.90
2019-03-05T08:08:38.139Z,4.90
2019-03-05T08:11:06.922Z,1.80
2019-03-05T08:14:34.935Z,2.83
2019-03-05T08:17:03.771Z,2.90
2019-03-05T08:19:32.588Z,3.77
2019-03-05T08:22:01.732Z,2.00
2019-03-05T08:24:30.739Z,1.60
2019-03-05T08:26:59.546Z,2.08
2019-03-05T08:29:28.536Z,2.85
2019-03-05T08:31:57.266Z,3.58
2019-03-05T08:34:26.026Z,3.92
2019-03-05T08:36:54.785Z,2.72
2019-03-05T08:39:23.793Z,6.12
2019-03-05T08:41:52.565Z,2.65
2019-03-05T08:44:21.651Z,2.47
2019-03-05T08:46:50.623Z,3.92
2019-03-05T08:49:19.467Z,5.17
2019-03-05T08:51:48.459Z,2.55
2019-03-05T08:54:17.500Z,3.25
2019-03-05T08:56:46.370Z,1.50
2019-03-05T08:59:15.235Z,2.10
2019-03-05T09:01:44.003Z,2.10
2019-03-05T09:04:12.775Z,2.40
2019-03-05T09:06:41.820Z,4.40
2019-03-05T09:09:12.426Z,3.42
2019-03-05T09:11:41.695Z,2.72
2019-03-05T09:14:10.533Z,4.40
2019-03-05T09:16:39.381Z,1.70
2019-03-05T09:19:08.414Z,2.72
2019-03-05T09:21:37.257Z,1.10
2019-03-05T09:24:06.400Z,3.08
2019-03-05T09:26:35.273Z,2.17
2019-03-05T09:29:04.279Z,2.90
2019-03-05T09:31:33.475Z,2.25
2019-03-05T09:34:02.405Z,4.20
2019-03-05T09:36:31.520Z,3.77
2019-03-05T09:39:00.349Z,2.77
2019-03-05T09:41:29.448Z,1.95
2019-03-05T09:43:58.375Z,1.30
2019-03-05T09:46:27.353Z,2.95
2019-03-05T09:48:56.523Z,1.50
2019-03-05T09:51:25.324Z,1.57
2019-03-05T09:53:54.225Z,1.17
2019-03-05T09:56:23.070Z,3.40
2019-03-05T09:58:51.910Z,3.05
2019-03-05T10:01:20.870Z,3.40
2019-03-05T10:03:49.716Z,3.47
2019-03-05T10:06:18.677Z,1.50
2019-03-05T10:08:47.860Z,1.80
2019-03-05T10:11:17.008Z,2.25
2019-03-05T10:13:45.956Z,3.02
2019-03-05T10:16:14.796Z,2.12
2019-03-05T10:18:43.636Z,3.20
2019-03-05T10:21:12.684Z,4.28
2019-03-05T10:23:41.542Z,3.12
2019-03-05T10:26:10.727Z,3.25
2019-03-05T10:28:39.704Z,2.02
2019-03-05T10:31:08.726Z,3.02
2019-03-05T10:33:37.883Z,4.25
2019-03-05T10:36:06.758Z,2.02
2019-03-05T10:38:35.734Z,2.58
2019-03-05T10:41:04.724Z,3.22
2019-03-05T10:43:34.396Z,2.33
2019-03-05T10:46:03.307Z,3.60
2019-03-05T10:48:32.307Z,4.25
2019-03-05T10:51:01.301Z,4.03
2019-03-05T10:53:30.619Z,4.22
2019-03-05T10:55:59.489Z,3.70
2019-03-05T10:58:33.797Z,2.77
2019-03-05T11:00:58.976Z,2.87
2019-03-05T11:03:29.728Z,2.22
2019-03-05T11:05:58.918Z,2.05
2019-03-05T11:08:28.388Z,2.27
2019-03-05T11:10:57.613Z,3.15
2019-03-05T11:13:26.475Z,1.80
2019-03-05T11:15:56.483Z,3.27
2019-03-05T11:18:29.426Z,2.72
2019-03-05T11:20:56.231Z,2.27
2019-03-05T11:23:25.426Z,2.58
2019-03-05T11:25:54.496Z,3.80
2019-03-05T11:28:23.685Z,2.08
2019-03-05T11:30:54.788Z,4.40
2019-03-05T11:33:23.629Z,3.22
2019-03-05T11:35:52.641Z,2.70
2019-03-05T11:38:22.080Z,4.42
2019-03-05T11:40:50.884Z,2.83
2019-03-05T11:43:19.814Z,2.60
2019-03-05T11:45:48.709Z,3.05
2019-03-05T11:48:17.711Z,3.17
2019-03-05T11:50:46.732Z,2.55
2019-03-05T11:53:15.686Z,4.20
2019-03-05T11:55:44.543Z,3.30
2019-03-05T11:58:13.467Z,3.10
2019-03-05T12:00:50.042Z,2.08
2019-03-05T12:03:18.962Z,2.47
2019-03-05T12:05:47.834Z,3.30
2019-03-05T12:08:16.764Z,2.45
2019-03-05T12:10:45.687Z,1.90
2019-03-05T12:13:14.922Z,2.77
2019-03-05T12:15:43.897Z,2.50
2019-03-05T12:18:12.942Z,3.08
2019-03-05T12:20:41.967Z,2.05
2019-03-05T12:23:11.889Z,2.00
2019-03-05T12:25:41.366Z,4.80
2019-03-05T12:28:11.230Z,4.22
2019-03-05T12:30:40.621Z,3.25
2019-03-05T12:33:09.593Z,2.70
2019-03-05T12:35:38.810Z,1.98
2019-03-05T12:38:07.718Z,2.50
2019-03-05T12:40:36.669Z,3.60
2019-03-05T12:43:05.674Z,5.30
2019-03-05T12:45:34.448Z,4.17
2019-03-05T12:48:03.236Z,1.52
2019-03-05T12:50:32.469Z,3.35
2019-03-05T12:53:01.422Z,2.95
2019-03-05T12:55:30.572Z,5.53
2019-03-05T12:57:59.404Z,1.90
2019-03-05T13:00:30.121Z,4.87
2019-03-05T13:02:58.973Z,4.45
2019-03-05T13:05:28.196Z,4.12
2019-03-05T13:07:57.815Z,4.53
2019-03-05T13:10:26.917Z,4.40
2019-03-05T13:12:55.873Z,6.25
2019-03-05T13:15:26.866Z,5.20
2019-03-05T13:17:55.742Z,3.17
2019-03-05T13:20:26.262Z,5.12
2019-03-05T13:22:55.494Z,5.33
2019-03-05T13:25:28.422Z,2.62
2019-03-05T13:27:57.511Z,3.98
2019-03-05T13:30:26.958Z,1.70
2019-03-05T13:32:59.219Z,1.72
2019-03-05T13:35:30.410Z,2.17
2019-03-05T13:37:58.764Z,1.82
2019-03-05T13:40:30.001Z,1.00
2019-03-05T13:42:58.544Z,3.50
2019-03-05T13:45:27.643Z,2.35
2019-03-05T13:48:00.421Z,1.52
2019-03-05T13:50:43.668Z,1.37
2019-03-05T13:53:24.967Z,1.82
2019-03-05T13:56:28.476Z,2.65
2019-03-05T13:59:10.392Z,2.90
2019-03-05T14:01:39.263Z,2.05
2019-03-05T14:04:11.517Z,2.47
2019-03-05T14:07:21.610Z,2.05
2019-03-05T14:09:52.008Z,2.72
2019-03-05T14:12:21.220Z,2.33
2019-03-05T14:14:50.097Z,2.50
2019-03-05T14:17:26.835Z,3.50
2019-03-05T14:19:55.736Z,2.33
2019-03-05T14:22:24.631Z,2.30
2019-03-05T14:25:01.451Z,2.12
2019-03-05T14:27:24.242Z,2.20
2019-03-05T14:29:53.054Z,1.90
2019-03-05T14:32:22.527Z,2.60
2019-03-05T14:35:09.768Z,3.47
2019-03-05T14:37:38.688Z,2.67
2019-03-05T14:40:23.548Z,3.45
2019-03-05T14:42:41.349Z,3.00
2019-03-05T14:45:16.008Z,2.77
2019-03-05T14:47:44.937Z,2.08
2019-03-05T14:50:13.934Z,2.85
2019-03-05T14:52:42.917Z,2.22
2019-03-05T14:55:12.384Z,3.25
2019-03-05T14:57:41.389Z,3.00
2019-03-05T15:00:12.521Z,3.22
2019-03-05T15:02:41.598Z,3.05
2019-03-05T15:05:10.711Z,2.22
2019-03-05T15:07:39.809Z,2.87
2019-03-05T15:10:09.292Z,2.35
2019-03-05T15:12:38.585Z,2.60
2019-03-05T15:15:11.687Z,2.45
2019-03-05T15:17:40.699Z,2.42
2019-03-05T15:20:10.063Z,2.20
2019-03-05T15:22:38.989Z,1.65
2019-03-05T15:25:09.380Z,2.15
2019-03-05T15:27:38.184Z,1.98
2019-03-05T15:30:10.258Z,3.12
2019-03-05T15:32:39.267Z,1.60
2019-03-05T15:35:08.269Z,3.17
2019-03-05T15:37:37.377Z,1.95
2019-03-05T15:40:06.918Z,3.17
2019-03-05T15:42:35.737Z,1.82
2019-03-05T15:45:05.622Z,2.25
2019-03-05T15:47:34.525Z,1.60
2019-03-05T15:50:03.385Z,2.08
2019-03-05T15:52:32.735Z,2.20
2019-03-05T15:55:02.042Z,3.08
2019-03-05T15:57:31.276Z,2.87
2019-03-05T16:00:00.271Z,2.40
2019-03-05T16:02:29.684Z,2.92
2019-03-05T16:04:58.518Z,3.02
2019-03-05T16:07:27.271Z,3.35
2019-03-05T16:09:56.064Z,3.60
2019-03-05T16:12:25.080Z,2.90
2019-03-05T16:14:54.124Z,2.50
2019-03-05T16:17:24.104Z,2.52
2019-03-05T16:19:53.698Z,2.62
2019-03-05T16:22:24.368Z,2.58
2019-03-05T16:24:53.138Z,2.80
2019-03-05T16:27:22.299Z,2.50
2019-03-05T16:29:52.019Z,3.27
2019-03-05T16:32:32.605Z,3.35
2019-03-05T16:35:23.360Z,3.02
2019-03-05T16:38:15.006Z,2.75
2019-03-05T16:41:02.805Z,3.70
2019-03-05T16:43:40.742Z,3.90
2019-03-05T16:46:40.263Z,5.28
2019-03-05T16:49:28.219Z,5.28
2019-03-05T16:52:31.107Z,3.15
2019-03-05T16:55:25.589Z,3.70
2019-03-05T16:58:05.632Z,4.20
2019-03-05T17:00:55.071Z,4.97
2019-03-05T17:03:45.843Z,4.55
2019-03-05T17:06:26.423Z,4.42
2019-03-05T17:09:12.490Z,3.30
2019-03-05T17:11:54.841Z,6.25
2019-03-05T17:14:24.247Z,9.98
2019-03-05T17:16:53.130Z,11.45
2019-03-05T17:19:22.239Z,8.63
2019-03-05T17:21:53.044Z,5.55
2019-03-05T17:24:22.079Z,5.40
2019-03-05T17:26:51.361Z,4.33
2019-03-05T17:29:20.360Z,5.47
2019-03-05T17:31:49.324Z,5.20
2019-03-05T17:34:18.818Z,5.40
2019-03-05T17:36:47.932Z,4.65
2019-03-05T17:39:21.624Z,4.30
2019-03-05T17:41:50.579Z,5.05
2019-03-05T17:44:19.600Z,4.75
2019-03-05T17:46:48.738Z,9.05
2019-03-05T17:49:17.796Z,8.00
2019-03-05T17:51:49.687Z,7.90
2019-03-05T17:54:19.211Z,5.80
2019-03-05T17:56:48.050Z,7.55
2019-03-05T17:59:17.155Z,8.95
2019-03-05T18:01:46.182Z,9.88
2019-03-05T18:04:15.428Z,6.00
2019-03-05T18:06:47.714Z,5.22
2019-03-05T18:09:19.927Z,5.30
2019-03-05T18:11:48.861Z,6.03
2019-03-05T18:14:19.280Z,4.97
2019-03-05T18:16:48.252Z,5.15
2019-03-05T18:19:17.285Z,5.08
2019-03-05T18:21:46.119Z,4.37
2019-03-05T18:24:15.199Z,5.28
2019-03-05T18:26:44.229Z,6.62
2019-03-05T18:29:13.084Z,5.50
2019-03-05T18:31:41.921Z,6.00
2019-03-05T18:34:11.272Z,5.22
2019-03-05T18:36:41.603Z,5.60
2019-03-05T18:39:10.920Z,4.70
2019-03-05T18:41:39.991Z,6.05
2019-03-05T18:44:08.844Z,4.72
2019-03-05T18:46:37.929Z,5.00
2019-03-05T18:49:06.926Z,5.58
2019-03-05T18:51:35.722Z,4.92
2019-03-05T18:54:04.619Z,5.12
2019-03-05T18:56:33.391Z,5.17
2019-03-05T18:59:02.400Z,6.83
2019-03-05T19:01:31.401Z,6.53
2019-03-05T19:04:00.227Z,6.28
2019-03-05T19:06:29.056Z,6.25
2019-03-05T19:08:58.123Z,6.40
2019-03-05T19:11:27.469Z,4.50
2019-03-05T19:13:56.524Z,8.13
2019-03-05T19:16:25.379Z,5.05
2019-03-05T19:18:54.393Z,5.65
2019-03-05T19:21:23.572Z,5.83
2019-03-05T19:23:52.383Z,6.20
2019-03-05T19:26:21.627Z,5.75
2019-03-05T19:28:51.442Z,5.65
2019-03-05T19:31:20.497Z,6.37
2019-03-05T19:33:49.777Z,5.45
2019-03-05T19:36:18.599Z,6.45
2019-03-05T19:38:47.664Z,8.70
2019-03-05T19:41:16.636Z,6.37
2019-03-05T19:43:45.422Z,5.70
2019-03-05T19:46:14.337Z,4.70
2019-03-05T19:48:43.080Z,6.40
2019-03-05T19:51:12.166Z,4.92
2019-03-05T19:53:40.906Z,5.30
2019-03-05T19:56:09.665Z,17.17
2019-03-05T19:58:38.853Z,7.42
2019-03-05T20:01:13.328Z,7.33
2019-03-05T20:03:42.070Z,6.20
2019-03-05T20:06:11.571Z,4.33
2019-03-05T20:08:40.656Z,6.60
2019-03-05T20:11:09.983Z,6.10
2019-03-05T20:13:39.561Z,7.33
2019-03-05T20:16:08.985Z,8.15
2019-03-05T20:18:38.381Z,6.53
2019-03-05T20:21:07.671Z,8.80
2019-03-05T20:23:36.453Z,7.83
2019-03-05T20:26:05.516Z,7.65
2019-03-05T20:28:35.925Z,6.78
2019-03-05T20:31:04.964Z,9.20
2019-03-05T20:33:34.197Z,7.55
2019-03-05T20:36:03.896Z,5.60
2019-03-05T20:38:33.074Z,6.28
2019-03-05T20:41:02.191Z,5.17
2019-03-05T20:43:31.027Z,6.47
2019-03-05T20:46:04.635Z,5.95
2019-03-05T20:48:33.539Z,5.92
2019-03-05T20:51:02.395Z,5.95
2019-03-05T20:53:31.494Z,4.67
2019-03-05T20:56:00.292Z,6.25
2019-03-05T20:58:29.448Z,8.35
2019-03-05T21:00:58.780Z,6.65
2019-03-05T21:03:27.935Z,7.12
2019-03-05T21:05:56.880Z,5.40
2019-03-05T21:08:26.058Z,7.40
2019-03-05T21:10:55.679Z,6.55
2019-03-05T21:13:24.721Z,6.17
2019-03-05T21:15:53.613Z,4.75
2019-03-05T21:18:23.004Z,5.05
2019-03-05T21:20:52.189Z,5.87
2019-03-05T21:23:21.052Z,7.78
2019-03-05T21:25:49.942Z,7.47
2019-03-05T21:28:18.792Z,6.37
2019-03-05T21:30:48.028Z,6.97
2019-03-05T21:33:16.876Z,5.72
2019-03-05T21:35:45.682Z,5.78
2019-03-05T21:38:14.499Z,4.45
2019-03-05T21:40:43.575Z,4.40
2019-03-05T21:43:12.404Z,4.50
2019-03-05T21:45:41.271Z,4.22
2019-03-05T21:48:10.226Z,5.30
2019-03-05T21:50:39.444Z,6.05
2019-03-05T21:53:08.380Z,7.60
2019-03-05T21:55:37.511Z,4.78
2019-03-05T21:58:06.379Z,6.47
2019-03-05T22:00:35.294Z,4.35
2019-03-05T22:03:04.590Z,4.45
2019-03-05T22:05:33.529Z,4.80
2019-03-05T22:08:02.336Z,3.80
2019-03-05T22:10:31.096Z,4.33
2019-03-05T22:12:59.988Z,3.70
2019-03-05T22:15:28.994Z,3.87
2019-03-05T22:17:57.812Z,3.98
2019-03-05T22:20:26.848Z,3.87
2019-03-05T22:22:55.582Z,4.12
2019-03-05T22:25:24.390Z,5.35
2019-03-05T22:27:53.259Z,4.22
2019-03-05T22:30:24.090Z,6.53
2019-03-05T22:32:53.075Z,4.40
2019-03-05T22:35:22.371Z,5.65
2019-03-05T22:37:51.744Z,5.78
2019-03-05T22:40:23.391Z,5.92
2019-03-05T22:42:52.483Z,4.20
2019-03-05T22:45:22.397Z,5.25
2019-03-05T22:47:51.458Z,6.37
2019-03-05T22:50:20.540Z,7.35
2019-03-05T22:52:49.591Z,5.45
2019-03-05T22:55:18.483Z,9.60
2019-03-05T22:57:47.335Z,4.10
2019-03-05T23:01:03.919Z,5.83
2019-03-05T23:03:32.876Z,4.87
2019-03-05T23:06:02.427Z,5.37
2019-03-05T23:08:31.303Z,5.22
2019-03-05T23:11:00.206Z,4.00
2019-03-05T23:13:29.699Z,5.75
2019-03-05T23:15:58.971Z,8.05
2019-03-05T23:18:27.935Z,4.65
2019-03-05T23:20:57.063Z,4.30
2019-03-05T23:23:26.251Z,3.50
2019-03-05T23:25:55.139Z,5.10
2019-03-05T23:28:24.246Z,4.62
2019-03-05T23:30:53.138Z,5.80
2019-03-05T23:33:22.603Z,3.95
2019-03-05T23:35:51.355Z,4.05
2019-03-05T23:38:20.626Z,4.53
2019-03-05T23:40:49.630Z,4.10
2019-03-05T23:43:18.442Z,6.65
2019-03-05T23:45:47.455Z,4.83
2019-03-05T23:48:16.258Z,4.20
2019-03-05T23:50:44.991Z,4.17
2019-03-05T23:53:14.423Z,4.42
2019-03-05T23:55:43.479Z,4.60
2019-03-05T23:58:12.487Z,6.42
